SBNT/NAT METAR and TAF weather

Enter ICAO airport designator
Station Type Date Time Source
SBNT METAR 2023/02/05 15:00 UTC NOAA

SBNT 051500Z 09011KT 9999 FEW025 31/22 Q1013


Station Type Date Time Source
SBNT Decoded METAR 2023/02/05 15:00 UTC NOAA

Natal Aeroporto, Brazil (SBNT) 05-55S 035-15W 49M
Feb 05, 2023 - 10:00 AM EST / 2023.02.05 1500 UTC
Wind: from the E (090 degrees) at 13 MPH (11 KT):0
Visibility: greater than 7 mile(s):0
Sky conditions: mostly clear
Temperature: 87 F (31 C)
Heat index: 92.3 F (33.5 C):1
Dew Point: 71 F (22 C)
Relative Humidity: 58%
Pressure (altimeter): 29.91 in. Hg (1013 hPa)
ob: SBNT 051500Z 09011KT 9999 FEW025 31/22 Q1013
cycle: 15

Station Type Date Time Source
SBNT TAF 2023/02/05 12:03 UTC NOAA

TAF TAF SBNT 050810Z 0512/0524 12010KT 9999 SCT025 TX31/0516Z TN26/0523Z
BECMG 0515/0517 12015KT 8000 BKN025 FEW035TCU
BECMG 0520/0522 14010KT
RMK PGB

Example: see airport list